createdAt,value
2017-10-11T00:00:39.654Z,994.6
2017-10-11T00:01:39.653Z,994.62
2017-10-11T00:02:39.650Z,994.62
2017-10-11T00:03:39.651Z,994.59
2017-10-11T00:04:39.648Z,994.57
2017-10-11T00:05:39.648Z,994.56
2017-10-11T00:06:39.647Z,994.56
2017-10-11T00:07:39.647Z,994.59
2017-10-11T00:08:39.646Z,994.57
2017-10-11T00:09:39.645Z,994.58
2017-10-11T00:10:39.651Z,994.57
2017-10-11T00:11:39.643Z,994.55
2017-10-11T00:12:39.645Z,994.55
2017-10-11T00:13:39.642Z,994.56
2017-10-11T00:14:39.647Z,994.52
2017-10-11T00:15:39.643Z,994.52
2017-10-11T00:16:39.642Z,994.55
2017-10-11T00:17:39.649Z,994.56
2017-10-11T00:18:39.652Z,994.56
2017-10-11T00:19:39.636Z,994.54
2017-10-11T00:20:39.635Z,994.58
2017-10-11T00:21:39.635Z,994.56
2017-10-11T00:22:39.635Z,994.53
2017-10-11T00:23:39.633Z,994.52
2017-10-11T00:24:39.632Z,994.51
2017-10-11T00:25:39.698Z,994.5
2017-10-11T00:26:39.629Z,994.5
2017-10-11T00:27:39.628Z,994.48
2017-10-11T00:28:39.628Z,994.49
2017-10-11T00:29:39.628Z,994.46
2017-10-11T00:30:41.016Z,994.48
2017-10-11T00:31:39.625Z,994.48
2017-10-11T00:32:39.624Z,994.53
2017-10-11T00:33:39.623Z,994.52
2017-10-11T00:34:39.623Z,994.52
2017-10-11T00:35:39.622Z,994.52
2017-10-11T00:36:39.621Z,994.55
2017-10-11T00:37:39.621Z,994.55
2017-10-11T00:38:39.620Z,994.56
2017-10-11T00:39:39.620Z,994.54
2017-10-11T00:40:39.618Z,994.57
2017-10-11T00:41:39.616Z,994.57
2017-10-11T00:42:39.615Z,994.57
2017-10-11T00:43:39.616Z,994.54
2017-10-11T00:44:39.611Z,994.57
2017-10-11T00:45:39.611Z,994.53
2017-10-11T00:46:39.609Z,994.53
2017-10-11T00:47:39.611Z,994.54
2017-10-11T00:48:39.607Z,994.53
2017-10-11T00:49:39.607Z,994.53
2017-10-11T00:50:39.607Z,994.55
2017-10-11T00:51:39.604Z,994.45
2017-10-11T00:52:39.605Z,994.53
2017-10-11T00:53:39.601Z,994.51
2017-10-11T00:54:39.608Z,994.52
2017-10-11T00:55:39.605Z,994.48
2017-10-11T00:56:39.605Z,994.51
2017-10-11T00:57:39.614Z,994.52
2017-10-11T00:58:39.596Z,994.49
2017-10-11T00:59:39.608Z,994.49
2017-10-11T01:00:39.593Z,994.5
2017-10-11T01:01:39.598Z,994.45
2017-10-11T01:02:39.594Z,994.47
2017-10-11T01:03:39.590Z,994.45
2017-10-11T01:04:39.589Z,994.51
2017-10-11T01:05:39.588Z,994.53
2017-10-11T01:06:39.587Z,994.45
2017-10-11T01:07:39.585Z,994.43
2017-10-11T01:08:39.584Z,994.48
2017-10-11T01:09:39.584Z,994.49
2017-10-11T01:10:39.581Z,994.47
2017-10-11T01:11:39.581Z,994.44
2017-10-11T01:12:39.580Z,994.5
2017-10-11T01:13:39.582Z,994.48
2017-10-11T01:14:39.577Z,994.51
2017-10-11T01:15:39.577Z,994.49
2017-10-11T01:16:39.577Z,994.51
2017-10-11T01:17:39.573Z,994.55
2017-10-11T01:18:39.574Z,994.54
2017-10-11T01:19:39.574Z,994.59
2017-10-11T01:20:39.575Z,994.52
2017-10-11T01:21:39.571Z,994.61
2017-10-11T01:22:39.572Z,994.6
2017-10-11T01:23:39.575Z,994.65
2017-10-11T01:24:39.571Z,994.68
2017-10-11T01:25:39.568Z,994.69
2017-10-11T01:26:39.566Z,994.71
2017-10-11T01:27:39.567Z,994.75
2017-10-11T01:28:39.566Z,994.75
2017-10-11T01:29:39.565Z,994.79
2017-10-11T01:30:39.564Z,994.78
2017-10-11T01:31:39.563Z,994.75
2017-10-11T01:32:39.563Z,994.74
2017-10-11T01:33:39.561Z,994.74
2017-10-11T01:34:39.562Z,994.71
2017-10-11T01:35:39.561Z,994.65
2017-10-11T01:36:39.558Z,994.7
2017-10-11T01:37:39.557Z,994.67
2017-10-11T01:38:39.556Z,994.72
2017-10-11T01:39:39.560Z,994.71
2017-10-11T01:40:39.557Z,994.68
2017-10-11T01:41:39.555Z,994.69
2017-10-11T01:42:39.554Z,994.68
2017-10-11T01:43:39.553Z,994.65
2017-10-11T01:44:39.555Z,994.67
2017-10-11T01:45:39.552Z,994.68
2017-10-11T01:46:39.551Z,994.72
2017-10-11T01:47:39.570Z,994.7
2017-10-11T01:48:39.549Z,994.72
2017-10-11T01:49:39.550Z,994.7
2017-10-11T01:50:39.547Z,994.72
2017-10-11T01:51:39.548Z,994.73
2017-10-11T01:52:39.552Z,994.76
2017-10-11T01:53:39.547Z,994.71
2017-10-11T01:54:39.550Z,994.7
2017-10-11T01:55:39.544Z,994.74
2017-10-11T01:56:39.544Z,994.74
2017-10-11T01:57:39.542Z,994.8
2017-10-11T01:58:39.542Z,994.74
2017-10-11T01:59:39.542Z,994.74
2017-10-11T02:00:39.542Z,994.73
2017-10-11T02:01:39.549Z,994.69
2017-10-11T02:02:39.540Z,994.72
2017-10-11T02:03:39.553Z,994.68
2017-10-11T02:04:39.540Z,994.68
2017-10-11T02:05:39.538Z,994.72
2017-10-11T02:06:39.538Z,994.75
2017-10-11T02:07:39.537Z,994.78
2017-10-11T02:08:39.540Z,994.77
2017-10-11T02:09:39.538Z,994.77
2017-10-11T02:10:39.538Z,994.77
2017-10-11T02:11:39.534Z,994.75
2017-10-11T02:12:39.537Z,994.77
2017-10-11T02:13:39.533Z,994.72
2017-10-11T02:14:39.544Z,994.73
2017-10-11T02:15:39.612Z,994.7
2017-10-11T02:16:39.534Z,994.73
2017-10-11T02:17:39.530Z,994.78
2017-10-11T02:18:39.531Z,994.75
2017-10-11T02:19:39.528Z,994.79
2017-10-11T02:20:39.527Z,994.8
2017-10-11T02:21:39.529Z,994.79
2017-10-11T02:22:39.526Z,994.72
2017-10-11T02:23:39.526Z,994.76
2017-10-11T02:24:39.531Z,994.78
2017-10-11T02:25:39.527Z,994.8
2017-10-11T02:26:39.526Z,994.8
2017-10-11T02:27:39.529Z,994.74
2017-10-11T02:28:39.529Z,994.69
2017-10-11T02:29:39.529Z,994.71
2017-10-11T02:30:39.520Z,994.7
2017-10-11T02:31:39.669Z,994.74
2017-10-11T02:32:39.536Z,994.74
2017-10-11T02:33:39.518Z,994.77
2017-10-11T02:34:39.516Z,994.81
2017-10-11T02:35:39.515Z,994.81
2017-10-11T02:36:39.517Z,994.76
2017-10-11T02:37:39.516Z,994.78
2017-10-11T02:38:39.513Z,994.8
2017-10-11T02:39:39.512Z,994.79
2017-10-11T02:40:39.512Z,994.75
2017-10-11T02:41:39.509Z,994.75
2017-10-11T02:42:39.510Z,994.69
2017-10-11T02:43:39.509Z,994.68
2017-10-11T02:44:39.508Z,994.73
2017-10-11T02:45:39.511Z,994.73
2017-10-11T02:46:40.308Z,994.72
2017-10-11T02:47:39.505Z,994.71
2017-10-11T02:48:39.506Z,994.72
2017-10-11T02:49:39.505Z,994.63
2017-10-11T02:50:39.503Z,994.64
2017-10-11T02:51:39.503Z,994.62
2017-10-11T02:52:39.500Z,994.65
2017-10-11T02:53:39.501Z,994.68
2017-10-11T02:54:39.507Z,994.68
2017-10-11T02:55:39.502Z,994.67
2017-10-11T02:56:39.499Z,994.67
2017-10-11T02:57:39.498Z,994.67
2017-10-11T02:58:39.501Z,994.68
2017-10-11T02:59:39.500Z,994.71
2017-10-11T03:00:39.493Z,994.66
2017-10-11T03:01:39.493Z,994.67
2017-10-11T03:02:39.493Z,994.69
2017-10-11T03:03:39.490Z,994.72
2017-10-11T03:04:39.491Z,994.65
2017-10-11T03:05:39.504Z,994.64
2017-10-11T03:06:39.490Z,994.67
2017-10-11T03:07:39.488Z,994.63
2017-10-11T03:08:39.490Z,994.66
2017-10-11T03:09:39.489Z,994.62
2017-10-11T03:10:39.493Z,994.64
2017-10-11T03:11:39.492Z,994.63
2017-10-11T03:12:39.499Z,994.66
2017-10-11T03:13:39.492Z,994.62
2017-10-11T03:14:39.492Z,994.62
2017-10-11T03:15:39.493Z,994.61
2017-10-11T03:16:39.480Z,994.63
2017-10-11T03:17:39.481Z,994.66
2017-10-11T03:18:39.478Z,994.62
2017-10-11T03:19:39.477Z,994.6
2017-10-11T03:20:39.478Z,994.6
2017-10-11T03:21:39.476Z,994.59
2017-10-11T03:22:39.475Z,994.6
2017-10-11T03:23:39.480Z,994.62
2017-10-11T03:24:39.474Z,994.64
2017-10-11T03:25:39.473Z,994.62
2017-10-11T03:26:39.471Z,994.68
2017-10-11T03:27:39.471Z,994.66
2017-10-11T03:28:39.470Z,994.61
2017-10-11T03:29:39.469Z,994.62
2017-10-11T03:30:39.469Z,994.59
2017-10-11T03:31:39.468Z,994.63
2017-10-11T03:32:39.470Z,994.66
2017-10-11T03:33:39.468Z,994.67
2017-10-11T03:34:39.466Z,994.72
2017-10-11T03:35:39.509Z,994.73
2017-10-11T03:36:39.463Z,994.72
2017-10-11T03:37:39.462Z,994.7
2017-10-11T03:38:39.461Z,994.72
2017-10-11T03:39:39.466Z,994.73
2017-10-11T03:40:39.459Z,994.74
2017-10-11T03:41:39.457Z,994.73
2017-10-11T03:42:39.457Z,994.76
2017-10-11T03:43:39.460Z,994.72
2017-10-11T03:44:39.454Z,994.73
2017-10-11T03:45:39.455Z,994.73
2017-10-11T03:46:39.456Z,994.77
2017-10-11T03:47:39.451Z,994.75
2017-10-11T03:48:39.452Z,994.76
2017-10-11T03:49:39.450Z,994.78
2017-10-11T03:50:39.457Z,994.72
2017-10-11T03:51:39.447Z,994.74
2017-10-11T03:52:39.447Z,994.71
2017-10-11T03:53:39.487Z,994.65
2017-10-11T03:54:39.486Z,994.69
2017-10-11T03:55:39.444Z,994.73
2017-10-11T03:56:39.444Z,994.73
2017-10-11T03:57:39.442Z,994.67
2017-10-11T03:58:39.440Z,994.68
2017-10-11T03:59:39.656Z,994.7
2017-10-11T04:00:39.644Z,994.65
2017-10-11T04:01:39.453Z,994.65
2017-10-11T04:02:39.436Z,994.61
2017-10-11T04:03:39.436Z,994.62
2017-10-11T04:04:39.435Z,994.61
2017-10-11T04:05:39.433Z,994.57
2017-10-11T04:06:39.432Z,994.54
2017-10-11T04:07:39.431Z,994.55
2017-10-11T04:08:39.431Z,994.54
2017-10-11T04:09:39.433Z,994.53
2017-10-11T04:10:39.427Z,994.53
2017-10-11T04:11:39.442Z,994.53
2017-10-11T04:12:39.430Z,994.5
2017-10-11T04:13:39.423Z,994.51
2017-10-11T04:14:39.425Z,994.49
2017-10-11T04:15:39.421Z,994.54
2017-10-11T04:16:39.418Z,994.55
2017-10-11T04:17:39.416Z,994.54
2017-10-11T04:18:39.418Z,994.56
2017-10-11T04:19:39.414Z,994.54
2017-10-11T04:20:39.416Z,994.53
2017-10-11T04:21:39.411Z,994.54
2017-10-11T04:22:39.410Z,994.55
2017-10-11T04:23:39.412Z,994.52
2017-10-11T04:24:39.411Z,994.5
2017-10-11T04:25:39.405Z,994.52
2017-10-11T04:26:39.405Z,994.48
2017-10-11T04:27:39.403Z,994.51
2017-10-11T04:28:39.409Z,994.51
2017-10-11T04:29:39.405Z,994.47
2017-10-11T04:30:39.409Z,994.48
2017-10-11T04:31:39.405Z,994.41
2017-10-11T04:32:41.497Z,994.48
2017-10-11T04:33:39.394Z,994.47
2017-10-11T04:34:39.392Z,994.45
2017-10-11T04:35:39.390Z,994.44
2017-10-11T04:36:39.389Z,994.46
2017-10-11T04:37:39.392Z,994.45
2017-10-11T04:38:39.385Z,994.43
2017-10-11T04:39:39.384Z,994.42
2017-10-11T04:40:39.382Z,994.46
2017-10-11T04:41:39.381Z,994.41
2017-10-11T04:42:39.380Z,994.44
2017-10-11T04:43:39.382Z,994.41
2017-10-11T04:44:39.375Z,994.4
2017-10-11T04:45:39.375Z,994.42
2017-10-11T04:46:39.376Z,994.43
2017-10-11T04:47:39.375Z,994.43
2017-10-11T04:48:39.371Z,994.43
2017-10-11T04:49:39.368Z,994.42
2017-10-11T04:50:39.368Z,994.44
2017-10-11T04:51:39.365Z,994.38
2017-10-11T04:52:39.364Z,994.42
2017-10-11T04:53:39.363Z,994.44
2017-10-11T04:54:39.362Z,994.42
2017-10-11T04:55:39.361Z,994.41
2017-10-11T04:56:39.359Z,994.41
2017-10-11T04:57:39.361Z,994.42
2017-10-11T04:58:39.360Z,994.4
2017-10-11T04:59:39.363Z,994.41
2017-10-11T05:00:39.353Z,994.43
2017-10-11T05:01:39.352Z,994.49
2017-10-11T05:02:39.351Z,994.5
2017-10-11T05:03:39.350Z,994.51
2017-10-11T05:04:39.345Z,994.5
2017-10-11T05:05:39.344Z,994.5
2017-10-11T05:06:39.342Z,994.49
2017-10-11T05:07:39.346Z,994.54
2017-10-11T05:08:39.339Z,994.49
2017-10-11T05:09:39.339Z,994.51
2017-10-11T05:10:39.355Z,994.55
2017-10-11T05:11:39.334Z,994.59
2017-10-11T05:12:39.333Z,994.57
2017-10-11T05:13:39.333Z,994.6
2017-10-11T05:14:39.330Z,994.62
2017-10-11T05:15:39.328Z,994.64
2017-10-11T05:16:39.325Z,994.62
2017-10-11T05:17:39.324Z,994.61
2017-10-11T05:18:39.332Z,994.63
2017-10-11T05:19:39.322Z,994.58
2017-10-11T05:20:39.321Z,994.61
2017-10-11T05:21:39.321Z,994.62
2017-10-11T05:22:39.343Z,994.6
2017-10-11T05:23:39.317Z,994.62
2017-10-11T05:24:39.316Z,994.62
2017-10-11T05:25:39.313Z,994.6
2017-10-11T05:26:39.312Z,994.62
2017-10-11T05:27:39.310Z,994.61
2017-10-11T05:28:39.310Z,994.62
2017-10-11T05:29:39.308Z,994.63
2017-10-11T05:30:39.306Z,994.65
2017-10-11T05:31:39.304Z,994.68
2017-10-11T05:32:39.304Z,994.6
2017-10-11T05:33:39.301Z,994.64
2017-10-11T05:34:39.314Z,994.61
2017-10-11T05:35:39.305Z,994.59
2017-10-11T05:36:39.303Z,994.6
2017-10-11T05:37:39.306Z,994.58
2017-10-11T05:38:39.300Z,994.62
2017-10-11T05:39:39.313Z,994.56
2017-10-11T05:40:39.292Z,994.59
2017-10-11T05:41:39.299Z,994.59
2017-10-11T05:42:39.291Z,994.62
2017-10-11T05:43:39.291Z,994.66
2017-10-11T05:44:39.288Z,994.62
2017-10-11T05:45:39.286Z,994.69
2017-10-11T05:46:39.286Z,994.67
2017-10-11T05:47:39.285Z,994.64
2017-10-11T05:48:39.333Z,994.64
2017-10-11T05:49:39.282Z,994.62
2017-10-11T05:50:39.283Z,994.66
2017-10-11T05:51:39.279Z,994.62
2017-10-11T05:52:39.277Z,994.66
2017-10-11T05:53:39.279Z,994.69
2017-10-11T05:54:39.276Z,994.64
2017-10-11T05:55:39.282Z,994.66
2017-10-11T05:56:39.274Z,994.67
2017-10-11T05:57:39.273Z,994.7
2017-10-11T05:58:39.272Z,994.69
2017-10-11T05:59:39.269Z,994.7
2017-10-11T06:00:39.268Z,994.72
2017-10-11T06:01:39.267Z,994.73
2017-10-11T06:02:39.266Z,994.74
2017-10-11T06:03:39.268Z,994.74
2017-10-11T06:04:39.269Z,994.78
2017-10-11T06:05:39.262Z,994.78
2017-10-11T06:06:39.261Z,994.83
2017-10-11T06:07:39.260Z,994.82
2017-10-11T06:08:39.258Z,994.89
2017-10-11T06:09:39.259Z,994.87
2017-10-11T06:10:39.257Z,994.84
2017-10-11T06:11:39.255Z,994.89
2017-10-11T06:12:39.255Z,994.9
2017-10-11T06:13:39.253Z,994.87
2017-10-11T06:14:39.254Z,994.91
2017-10-11T06:15:39.252Z,994.91
2017-10-11T06:16:39.252Z,994.91
2017-10-11T06:17:39.248Z,994.91
2017-10-11T06:18:39.248Z,994.95
2017-10-11T06:19:39.246Z,994.93
2017-10-11T06:20:39.246Z,994.93
2017-10-11T06:21:39.243Z,994.9
2017-10-11T06:22:39.244Z,994.91
2017-10-11T06:23:39.246Z,994.93
2017-10-11T06:24:39.241Z,994.88
2017-10-11T06:25:39.242Z,994.94
2017-10-11T06:26:39.240Z,994.87
2017-10-11T06:27:39.240Z,994.88
2017-10-11T06:28:39.239Z,994.87
2017-10-11T06:29:39.239Z,994.85
2017-10-11T06:30:39.242Z,994.9
2017-10-11T06:31:39.241Z,994.98
2017-10-11T06:32:39.240Z,994.96
2017-10-11T06:33:39.235Z,994.96
2017-10-11T06:34:39.235Z,995
2017-10-11T06:35:39.232Z,995.01
2017-10-11T06:36:39.233Z,995.03
2017-10-11T06:37:39.232Z,995
2017-10-11T06:38:39.233Z,995.01
2017-10-11T06:39:39.234Z,994.98
2017-10-11T06:40:39.230Z,995.02
2017-10-11T06:41:39.230Z,995.01
2017-10-11T06:42:39.231Z,995.04
2017-10-11T06:43:39.228Z,995
2017-10-11T06:44:39.228Z,995
2017-10-11T06:45:39.229Z,995.04
2017-10-11T06:46:39.228Z,995.04
2017-10-11T06:47:39.229Z,995.03
2017-10-11T06:48:39.228Z,995.01
2017-10-11T06:49:39.289Z,995.05
2017-10-11T06:50:39.225Z,995.04
2017-10-11T06:51:39.225Z,995.05
2017-10-11T06:52:39.226Z,995
2017-10-11T06:53:39.227Z,994.99
2017-10-11T06:54:39.225Z,995.02
2017-10-11T06:55:39.226Z,995
2017-10-11T06:56:39.224Z,995.02
2017-10-11T06:57:39.223Z,994.98
2017-10-11T06:58:39.222Z,995.01
2017-10-11T06:59:39.224Z,995.01
2017-10-11T07:00:39.224Z,994.98
2017-10-11T07:01:39.223Z,995.04
2017-10-11T07:02:39.222Z,995.06
2017-10-11T07:03:39.223Z,995.08
2017-10-11T07:04:40.323Z,995.06
2017-10-11T07:05:39.223Z,995.11
2017-10-11T07:06:39.221Z,995.07
2017-10-11T07:07:39.221Z,995.1
2017-10-11T07:08:39.222Z,995.04
2017-10-11T07:09:39.219Z,995.07
2017-10-11T07:10:39.221Z,995.06
2017-10-11T07:11:39.222Z,995.06
2017-10-11T07:12:39.221Z,995.1
2017-10-11T07:13:39.221Z,995.08
2017-10-11T07:14:39.221Z,995.11
2017-10-11T07:15:39.222Z,995.05
2017-10-11T07:16:39.221Z,995.04
2017-10-11T07:17:39.221Z,995.05
2017-10-11T07:18:39.224Z,995.04
2017-10-11T07:19:39.222Z,995.07
2017-10-11T07:20:39.223Z,995.06
2017-10-11T07:21:39.223Z,995.09
2017-10-11T07:22:39.224Z,995.08
2017-10-11T07:23:39.224Z,995.15
2017-10-11T07:24:39.224Z,995.13
2017-10-11T07:25:39.225Z,995.16
2017-10-11T07:26:39.224Z,995.11
2017-10-11T07:27:39.225Z,995.1
2017-10-11T07:28:39.228Z,995.14
2017-10-11T07:29:39.229Z,995.11
2017-10-11T07:30:39.226Z,995.13
2017-10-11T07:31:39.227Z,995.1
2017-10-11T07:32:39.228Z,995.13
2017-10-11T07:33:39.232Z,995.14
2017-10-11T07:34:39.229Z,995.11
2017-10-11T07:35:39.229Z,995.17
2017-10-11T07:36:39.247Z,995.19
2017-10-11T07:37:39.232Z,995.17
2017-10-11T07:38:39.231Z,995.2
2017-10-11T07:39:39.233Z,995.15
2017-10-11T07:40:39.235Z,995.17
2017-10-11T07:41:39.241Z,995.14
2017-10-11T07:42:39.241Z,995.17
2017-10-11T07:43:39.237Z,995.15
2017-10-11T07:44:39.241Z,995.13
2017-10-11T07:45:39.240Z,995.13
2017-10-11T07:46:39.241Z,995.16
2017-10-11T07:47:39.262Z,995.15
2017-10-11T07:48:39.245Z,995.17
2017-10-11T07:49:39.246Z,995.16
2017-10-11T07:50:39.245Z,995.13
2017-10-11T07:51:39.248Z,995.14
2017-10-11T07:52:39.251Z,995.11
2017-10-11T07:53:39.250Z,995.13
2017-10-11T07:54:39.254Z,995.17
2017-10-11T07:55:39.253Z,995.18
2017-10-11T07:56:39.254Z,995.19
2017-10-11T07:57:39.255Z,995.2
2017-10-11T07:58:39.256Z,995.24
2017-10-11T07:59:39.256Z,995.18
2017-10-11T08:00:40.865Z,995.21
2017-10-11T08:01:39.259Z,995.21
2017-10-11T08:02:39.261Z,995.17
2017-10-11T08:03:39.263Z,995.21
2017-10-11T08:04:39.263Z,995.21
2017-10-11T08:05:39.269Z,995.22
2017-10-11T08:06:39.267Z,995.21
2017-10-11T08:07:39.266Z,995.23
2017-10-11T08:08:39.267Z,995.22
2017-10-11T08:09:39.271Z,995.23
2017-10-11T08:10:39.269Z,995.21
2017-10-11T08:11:39.269Z,995.2
2017-10-11T08:12:39.271Z,995.24
2017-10-11T08:13:39.278Z,995.21
2017-10-11T08:14:39.272Z,995.17
2017-10-11T08:15:39.282Z,995.23
2017-10-11T08:16:39.275Z,995.25
2017-10-11T08:17:39.277Z,995.3
2017-10-11T08:18:39.278Z,995.27
2017-10-11T08:19:39.280Z,995.3
2017-10-11T08:20:39.281Z,995.29
2017-10-11T08:21:39.282Z,995.25
2017-10-11T08:22:39.284Z,995.25
2017-10-11T08:23:39.285Z,995.22
2017-10-11T08:24:39.286Z,995.21
2017-10-11T08:25:39.288Z,995.22
2017-10-11T08:26:39.288Z,995.24
2017-10-11T08:27:39.290Z,995.23
2017-10-11T08:28:39.294Z,995.25
2017-10-11T08:29:39.295Z,995.24
2017-10-11T08:30:39.298Z,995.23
2017-10-11T08:31:39.304Z,995.22
2017-10-11T08:32:39.303Z,995.23
2017-10-11T08:33:39.306Z,995.2
2017-10-11T08:34:39.304Z,995.18
2017-10-11T08:35:39.305Z,995.21
2017-10-11T08:36:39.307Z,995.21
2017-10-11T08:37:39.321Z,995.18
2017-10-11T08:38:39.310Z,995.2
2017-10-11T08:39:39.309Z,995.18
2017-10-11T08:40:39.314Z,995.24
2017-10-11T08:41:39.315Z,995.18
2017-10-11T08:42:39.317Z,995.26
2017-10-11T08:43:39.318Z,995.3
2017-10-11T08:44:39.319Z,995.29
2017-10-11T08:45:39.329Z,995.24
2017-10-11T08:46:39.325Z,995.29
2017-10-11T08:47:39.329Z,995.29
2017-10-11T08:48:39.336Z,995.28
2017-10-11T08:49:39.330Z,995.27
2017-10-11T08:50:39.331Z,995.22
2017-10-11T08:51:44.389Z,995.23
2017-10-11T08:52:39.336Z,995.24
2017-10-11T08:53:39.338Z,995.25
2017-10-11T08:54:39.341Z,995.25
2017-10-11T08:55:39.347Z,995.22
2017-10-11T08:56:39.345Z,995.22
2017-10-11T08:57:39.349Z,995.28
2017-10-11T08:58:39.349Z,995.31
2017-10-11T08:59:39.351Z,995.28
2017-10-11T09:00:39.356Z,995.24
2017-10-11T09:01:39.363Z,995.23
2017-10-11T09:02:39.358Z,995.23
2017-10-11T09:03:39.380Z,995.25
2017-10-11T09:04:39.362Z,995.3
2017-10-11T09:05:39.369Z,995.26
2017-10-11T09:06:39.366Z,995.26
2017-10-11T09:07:39.371Z,995.28
2017-10-11T09:08:39.374Z,995.24
2017-10-11T09:09:39.382Z,995.27
2017-10-11T09:10:39.379Z,995.22
2017-10-11T09:11:39.389Z,995.23
2017-10-11T09:12:39.382Z,995.19
2017-10-11T09:13:39.385Z,995.22
2017-10-11T09:14:39.389Z,995.17
2017-10-11T09:15:39.392Z,995.17
2017-10-11T09:16:39.398Z,995.11
2017-10-11T09:17:39.395Z,995.15
2017-10-11T09:18:39.402Z,995.16
2017-10-11T09:19:39.400Z,995.15
2017-10-11T09:20:39.403Z,995.19
2017-10-11T09:21:39.407Z,995.21
2017-10-11T09:22:39.408Z,995.15
2017-10-11T09:23:39.410Z,995.12
2017-10-11T09:24:39.415Z,995.06
2017-10-11T09:25:39.420Z,995.12
2017-10-11T09:26:39.424Z,995.06
2017-10-11T09:27:39.423Z,995.07
2017-10-11T09:28:39.426Z,995.06
2017-10-11T09:29:39.430Z,995.03
2017-10-11T09:30:39.432Z,995.02
2017-10-11T09:31:39.434Z,995.07
2017-10-11T09:32:39.438Z,995.1
2017-10-11T09:33:39.441Z,995.09
2017-10-11T09:34:39.442Z,995.06
2017-10-11T09:35:39.446Z,995.06
2017-10-11T09:36:39.450Z,995.02
2017-10-11T09:37:39.451Z,995.04
2017-10-11T09:38:39.455Z,995.05
2017-10-11T09:39:39.456Z,995.03
2017-10-11T09:40:39.459Z,995.01
2017-10-11T09:41:39.463Z,995.02
2017-10-11T09:42:39.465Z,995.1
2017-10-11T09:43:39.468Z,995.09
2017-10-11T09:44:39.475Z,995.08
2017-10-11T09:45:39.473Z,995.04
2017-10-11T09:46:39.478Z,995.03
2017-10-11T09:47:39.480Z,995.03
2017-10-11T09:48:39.493Z,994.97
2017-10-11T09:49:39.485Z,994.95
2017-10-11T09:50:39.487Z,994.99
2017-10-11T09:51:39.488Z,994.99
2017-10-11T09:52:39.493Z,995
2017-10-11T09:53:39.505Z,994.94
2017-10-11T09:54:39.500Z,994.95
2017-10-11T09:55:39.500Z,994.98
2017-10-11T09:56:39.501Z,994.97
2017-10-11T09:57:39.504Z,994.94
2017-10-11T09:58:39.507Z,994.97
2017-10-11T09:59:39.510Z,994.96
2017-10-11T10:00:39.511Z,994.9
2017-10-11T10:01:39.512Z,994.91
2017-10-11T10:02:39.515Z,994.93
2017-10-11T10:03:39.521Z,994.94
2017-10-11T10:04:39.521Z,994.92
2017-10-11T10:05:39.526Z,994.89
2017-10-11T10:06:39.536Z,994.93
2017-10-11T10:07:39.529Z,994.92
2017-10-11T10:08:39.532Z,994.93
2017-10-11T10:09:39.534Z,994.94
2017-10-11T10:10:39.542Z,994.89
2017-10-11T10:11:39.540Z,994.97
2017-10-11T10:12:39.543Z,994.92
2017-10-11T10:13:39.546Z,994.88
2017-10-11T10:14:39.548Z,994.85
2017-10-11T10:15:39.560Z,994.79
2017-10-11T10:16:39.588Z,994.75
2017-10-11T10:17:39.555Z,994.74
2017-10-11T10:18:39.559Z,994.72
2017-10-11T10:19:39.569Z,994.75
2017-10-11T10:20:39.569Z,994.86
2017-10-11T10:21:39.573Z,994.88
2017-10-11T10:22:42.176Z,994.84
2017-10-11T10:23:39.575Z,994.82
2017-10-11T10:24:39.576Z,994.75
2017-10-11T10:25:39.583Z,994.78
2017-10-11T10:26:39.601Z,994.72
2017-10-11T10:27:39.588Z,994.72
2017-10-11T10:28:39.588Z,994.76
2017-10-11T10:29:39.589Z,994.85
2017-10-11T10:30:39.592Z,994.78
2017-10-11T10:31:39.597Z,994.77
2017-10-11T10:32:39.601Z,994.78
2017-10-11T10:33:39.600Z,994.78
2017-10-11T10:34:39.603Z,994.81
2017-10-11T10:35:39.605Z,994.81
2017-10-11T10:36:39.610Z,994.81
2017-10-11T10:37:39.614Z,994.83
2017-10-11T10:38:39.615Z,994.83
2017-10-11T10:39:39.617Z,994.84
2017-10-11T10:40:39.623Z,994.82
2017-10-11T10:41:39.622Z,994.81
2017-10-11T10:42:39.637Z,994.79
2017-10-11T10:43:39.629Z,994.74
2017-10-11T10:44:39.633Z,994.76
2017-10-11T10:45:39.632Z,994.77
2017-10-11T10:46:39.636Z,994.85
2017-10-11T10:47:39.645Z,994.74
2017-10-11T10:48:39.641Z,994.76
2017-10-11T10:49:39.645Z,994.82
2017-10-11T10:50:39.647Z,994.77
2017-10-11T10:51:39.649Z,994.75
2017-10-11T10:52:39.653Z,994.71
2017-10-11T10:53:39.656Z,994.67
2017-10-11T10:54:39.659Z,994.7
2017-10-11T10:55:39.661Z,994.66
2017-10-11T10:56:39.671Z,994.67
2017-10-11T10:57:39.670Z,994.68
2017-10-11T10:58:39.670Z,994.67
2017-10-11T10:59:39.675Z,994.68
2017-10-11T11:00:39.677Z,994.65
2017-10-11T11:01:39.684Z,994.61
2017-10-11T11:02:39.682Z,994.62
2017-10-11T11:03:39.685Z,994.56
2017-10-11T11:04:39.691Z,994.56
2017-10-11T11:05:39.691Z,994.57
2017-10-11T11:06:39.698Z,994.55
2017-10-11T11:07:39.697Z,994.57
2017-10-11T11:08:39.701Z,994.54
2017-10-11T11:09:39.713Z,994.59
2017-10-11T11:10:39.706Z,994.58
2017-10-11T11:11:39.708Z,994.51
2017-10-11T11:12:39.711Z,994.52
2017-10-11T11:13:39.715Z,994.45
2017-10-11T11:14:39.718Z,994.43
2017-10-11T11:15:39.721Z,994.44
2017-10-11T11:16:39.724Z,994.54
2017-10-11T11:17:39.727Z,994.48
2017-10-11T11:18:39.730Z,994.49
2017-10-11T11:19:39.733Z,994.41
2017-10-11T11:20:39.748Z,994.38
2017-10-11T11:21:39.756Z,994.34
2017-10-11T11:22:39.750Z,994.31
2017-10-11T11:23:39.752Z,994.3
2017-10-11T11:24:39.785Z,994.29
2017-10-11T11:25:39.792Z,994.29
2017-10-11T11:26:39.762Z,994.34
2017-10-11T11:27:39.759Z,994.35
2017-10-11T11:28:39.765Z,994.3
2017-10-11T11:29:39.767Z,994.28
2017-10-11T11:30:39.770Z,994.34
2017-10-11T11:31:39.786Z,994.3
2017-10-11T11:32:39.775Z,994.32
2017-10-11T11:33:39.777Z,994.36
2017-10-11T11:34:39.781Z,994.38
2017-10-11T11:35:39.784Z,994.34
2017-10-11T11:36:39.787Z,994.29
2017-10-11T11:37:39.790Z,994.24
2017-10-11T11:38:39.795Z,994.29
2017-10-11T11:39:39.798Z,994.29
2017-10-11T11:40:39.801Z,994.22
2017-10-11T11:41:39.822Z,994.22
2017-10-11T11:42:39.806Z,994.22
2017-10-11T11:43:39.825Z,994.16
2017-10-11T11:44:39.838Z,994.18
2017-10-11T11:45:39.830Z,994.19
2017-10-11T11:46:39.827Z,994.14
2017-10-11T11:47:39.826Z,994.16
2017-10-11T11:48:39.862Z,994.18
2017-10-11T11:49:39.830Z,994.14
2017-10-11T11:50:39.837Z,994.18
2017-10-11T11:51:39.840Z,994.2
2017-10-11T11:52:39.840Z,994.15
2017-10-11T11:53:39.940Z,994.12
2017-10-11T11:54:39.844Z,994.16
2017-10-11T11:55:39.848Z,994.13
2017-10-11T11:56:39.858Z,994.21
2017-10-11T11:57:39.869Z,994.16
2017-10-11T11:58:39.856Z,994.16
2017-10-11T11:59:39.860Z,994.13
2017-10-11T12:00:39.869Z,994.12
2017-10-11T12:01:39.868Z,994.18
2017-10-11T12:02:39.874Z,994.14
2017-10-11T12:03:39.876Z,994.16
2017-10-11T12:04:39.876Z,994.06
2017-10-11T12:05:39.879Z,994.02
2017-10-11T12:06:39.882Z,994.03
2017-10-11T12:07:39.904Z,994.04
2017-10-11T12:08:41.243Z,993.99
2017-10-11T12:09:39.891Z,994.02
2017-10-11T12:10:39.902Z,994.05
2017-10-11T12:11:39.897Z,994.01
2017-10-11T12:12:39.900Z,993.96
2017-10-11T12:13:39.904Z,993.87
2017-10-11T12:14:39.907Z,993.83
2017-10-11T12:15:39.909Z,993.87
2017-10-11T12:16:39.911Z,993.8
2017-10-11T12:17:39.916Z,993.82
2017-10-11T12:18:39.919Z,993.84
2017-10-11T12:19:39.922Z,993.85
2017-10-11T12:20:39.925Z,993.84
2017-10-11T12:21:39.929Z,993.83
2017-10-11T12:22:39.930Z,993.81
2017-10-11T12:23:39.933Z,993.81
2017-10-11T12:24:39.938Z,993.74
2017-10-11T12:25:39.940Z,993.76
2017-10-11T12:26:39.947Z,993.78
2017-10-11T12:27:39.947Z,993.71
2017-10-11T12:28:39.947Z,993.69
2017-10-11T12:29:39.953Z,993.7
2017-10-11T12:30:39.954Z,993.77
2017-10-11T12:31:39.959Z,993.78